Big Torch Key, Florida
Current Conditions -  °F | °C
As of 1:53 AM on Wednesday 22 Oct 2014 (Local Time) from KEYW Reporting Station
Few Clouds Few Clouds  
Wind Chill: 77°   Ceiling: Unl
Heat Index: 78°   Visibility: 10mi
Dew Point: 75°   Wind: 3mph
Humidity: 94%   Direction: 30°NNE
Pressure: 29.92"   Gusts: NA
Location:  24.6465°N, 81.5399°W
Report Text: KEYW 220553Z AUTO 03003KT 10SM FEW120 25/24 A2992 RMK AO2 SLP130 60001 T02500239 10261 20244 56020
Loading
Personal Weather Stations






























Interactive Weather Map New forecast layout! Learn more

10-Day Weather Forecast

Advertisements
Track Severe Weather on mobile